Flight Number: EUR1326 Duration: 1:45
Departure: Warsaw Okecie (EPWA) at 18:30 Distance: 511 Nm
Arrival: Sarajevo (LQSA) at 20:15 Equipment: A321

Weather Information
Warszawa-Okecie, Poland (EPWA) 52-10N 020-58E 107M Aug 19, 2018 - 05:00 AM EDT / 2018.08.19 0900 UTC
Wind: Variable at 2 MPH (2 KT):0
Visibility: greater than 7 mile(s):0 Temperature: 78 F (26 C) Dew Point: 64 F (18 C) Relative Humidity: 61% Pressure (altimeter): 30.15 in. Hg (1021 hPa)
ob: EPWA 190900Z VRB02KT CAVOK 26/18 Q1021 NOSIG cycle: 9
Sunrise: 03:31 Sunset: 17:48 (UTC)

Sarajevo, Bosnia and Herzegovina (LQSA) 43-49N 018-20E 510M Aug 19, 2018 - 05:00 AM EDT / 2018.08.19 0900 UTC
Wind: Variable at 2 MPH (2 KT):0
Visibility: 4 mile(s):0
Sky conditions: partly cloudy Temperature: 71 F (22 C) Dew Point: 64 F (18 C) Relative Humidity: 78% Pressure (altimeter): 30.12 in. Hg (1020 hPa)
ob: LQSA 190900Z VRB02KT 8000 SCT050 22/18 Q1020 NOSIG cycle: 9
Sunrise: 03:59 Sunset: 17:41 (UTC)

TAF:2018/08/19 06:08 TAF LQSA 190500Z 1906/2006 VRB02KT 9999 SCT050 TX28/1913Z TN16/2003Z PROB40 TEMPO 1906/1908 4000 BR BKN004 TEMPO 1910/1918 VRB12KT TSRA FEW030CB SCT040 PROB30 TEMPO 2003/2006 3000 BR BKN003

Previous Pireps for this route
Date Aircraft Flight time Fuel used Landing rate On time
2013-03-12A3211.4313332.20No
2013-03-23A3211.4213779.60Yes
2013-07-01A32101.4510879-251No
2014-08-06A32101.5711352-271Yes
(pireps marked green are flown by you)

Route map